sensor_id;sensor_type;location;lat;lon;timestamp;temperature;humidity
702;DHT22;334;48.808;9.222;2022-07-29T00:00:14;24.20;1.00
702;DHT22;334;48.808;9.222;2022-07-29T00:01:16;24.20;1.00
702;DHT22;334;48.808;9.222;2022-07-29T00:02:20;24.20;1.00
702;DHT22;334;48.808;9.222;2022-07-29T00:03:22;24.20;1.00
702;DHT22;334;48.808;9.222;2022-07-29T00:04:24;24.30;1.00
702;DHT22;334;48.808;9.222;2022-07-29T00:05:28;24.30;1.00
702;DHT22;334;48.808;9.222;2022-07-29T00:06:30;24.30;1.00
702;DHT22;334;48.808;9.222;2022-07-29T00:07:31;24.30;1.00
702;DHT22;334;48.808;9.222;2022-07-29T00:08:34;24.20;1.00
702;DHT22;334;48.808;9.222;2022-07-29T00:09:37;24.20;1.00
702;DHT22;334;48.808;9.222;2022-07-29T00:10:51;24.30;1.00
702;DHT22;334;48.808;9.222;2022-07-29T00:11:55;24.20;1.00
702;DHT22;334;48.808;9.222;2022-07-29T00:12:58;24.10;1.00
702;DHT22;334;48.808;9.222;2022-07-29T00:14:00;24.20;1.00
702;DHT22;334;48.808;9.222;2022-07-29T00:15:02;24.30;1.00
702;DHT22;334;48.808;9.222;2022-07-29T00:16:04;24.20;1.00
702;DHT22;334;48.808;9.222;2022-07-29T00:17:07;24.20;1.00
702;DHT22;334;48.808;9.222;2022-07-29T00:18:08;24.20;1.00
702;DHT22;334;48.808;9.222;2022-07-29T00:19:10;24.20;1.00
702;DHT22;334;48.808;9.222;2022-07-29T00:20:13;24.20;1.00
702;DHT22;334;48.808;9.222;2022-07-29T00:21:14;24.20;1.00
702;DHT22;334;48.808;9.222;2022-07-29T00:22:16;24.20;1.00
702;DHT22;334;48.808;9.222;2022-07-29T00:23:18;24.20;1.00
702;DHT22;334;48.808;9.222;2022-07-29T00:24:20;24.10;1.00
702;DHT22;334;48.808;9.222;2022-07-29T00:25:22;24.10;1.00
702;DHT22;334;48.808;9.222;2022-07-29T00:26:26;24.10;1.00
702;DHT22;334;48.808;9.222;2022-07-29T00:27:34;24.10;1.00
702;DHT22;334;48.808;9.222;2022-07-29T00:28:36;24.10;1.00
702;DHT22;334;48.808;9.222;2022-07-29T00:29:38;24.10;1.00
702;DHT22;334;48.808;9.222;2022-07-29T00:30:40;24.10;1.00
702;DHT22;334;48.808;9.222;2022-07-29T00:31:44;24.10;1.00
702;DHT22;334;48.808;9.222;2022-07-29T00:32:46;24.00;1.00
702;DHT22;334;48.808;9.222;2022-07-29T00:33:48;24.00;1.00
702;DHT22;334;48.808;9.222;2022-07-29T00:34:50;24.00;1.00
702;DHT22;334;48.808;9.222;2022-07-29T00:36:10;24.00;1.00
702;DHT22;334;48.808;9.222;2022-07-29T00:37:12;24.00;1.00
702;DHT22;334;48.808;9.222;2022-07-29T00:38:17;23.90;1.00
702;DHT22;334;48.808;9.222;2022-07-29T00:39:19;23.90;1.00
702;DHT22;334;48.808;9.222;2022-07-29T00:40:21;23.80;1.00
702;DHT22;334;48.808;9.222;2022-07-29T00:41:24;23.80;1.00
702;DHT22;334;48.808;9.222;2022-07-29T00:42:26;23.80;1.00
702;DHT22;334;48.808;9.222;2022-07-29T00:43:28;23.80;1.00
702;DHT22;334;48.808;9.222;2022-07-29T00:44:29;23.80;1.00
702;DHT22;334;48.808;9.222;2022-07-29T00:45:31;23.70;1.00
702;DHT22;334;48.808;9.222;2022-07-29T00:46:33;23.70;1.00
702;DHT22;334;48.808;9.222;2022-07-29T00:47:35;23.70;1.00
702;DHT22;334;48.808;9.222;2022-07-29T00:48:38;23.70;1.00
702;DHT22;334;48.808;9.222;2022-07-29T00:49:41;23.70;1.00
702;DHT22;334;48.808;9.222;2022-07-29T00:50:43;23.80;1.00
702;DHT22;334;48.808;9.222;2022-07-29T00:51:45;23.80;1.00
702;DHT22;334;48.808;9.222;2022-07-29T00:52:48;23.80;1.00
702;DHT22;334;48.808;9.222;2022-07-29T00:53:50;23.80;1.00
702;DHT22;334;48.808;9.222;2022-07-29T00:54:54;23.90;1.00
702;DHT22;334;48.808;9.222;2022-07-29T00:55:56;23.80;1.00
702;DHT22;334;48.808;9.222;2022-07-29T00:56:59;23.90;1.00
702;DHT22;334;48.808;9.222;2022-07-29T00:58:01;23.90;1.00
702;DHT22;334;48.808;9.222;2022-07-29T00:59:03;23.90;1.00
702;DHT22;334;48.808;9.222;2022-07-29T01:00:07;23.80;1.00
702;DHT22;334;48.808;9.222;2022-07-29T01:01:09;23.90;1.00
702;DHT22;334;48.808;9.222;2022-07-29T01:02:11;24.00;1.00
702;DHT22;334;48.808;9.222;2022-07-29T01:03:13;24.00;1.00
702;DHT22;334;48.808;9.222;2022-07-29T01:04:15;24.00;1.00
702;DHT22;334;48.808;9.222;2022-07-29T01:05:21;23.90;1.00
702;DHT22;334;48.808;9.222;2022-07-29T01:06:48;23.90;1.00
702;DHT22;334;48.808;9.222;2022-07-29T01:07:53;23.90;1.00
702;DHT22;334;48.808;9.222;2022-07-29T01:08:55;23.90;1.00
702;DHT22;334;48.808;9.222;2022-07-29T01:09:58;23.90;1.00
702;DHT22;334;48.808;9.222;2022-07-29T01:11:01;23.90;1.00
702;DHT22;334;48.808;9.222;2022-07-29T01:12:04;23.90;1.00
702;DHT22;334;48.808;9.222;2022-07-29T01:13:09;23.90;1.00
702;DHT22;334;48.808;9.222;2022-07-29T01:14:11;23.90;1.00
702;DHT22;334;48.808;9.222;2022-07-29T01:15:15;23.90;1.00
702;DHT22;334;48.808;9.222;2022-07-29T01:16:31;23.90;1.00
702;DHT22;334;48.808;9.222;2022-07-29T01:17:38;23.90;1.00
702;DHT22;334;48.808;9.222;2022-07-29T01:18:58;23.90;1.00
702;DHT22;334;48.808;9.222;2022-07-29T01:21:51;23.90;1.00
702;DHT22;334;48.808;9.222;2022-07-29T01:23:21;23.90;1.00
702;DHT22;334;48.808;9.222;2022-07-29T01:30:09;23.60;1.20
702;DHT22;334;48.808;9.222;2022-07-29T01:31:58;23.60;1.40
702;DHT22;334;48.808;9.222;2022-07-29T01:33:02;23.50;1.40
702;DHT22;334;48.808;9.222;2022-07-29T01:34:07;23.60;1.40
702;DHT22;334;48.808;9.222;2022-07-29T01:35:25;23.50;1.40
702;DHT22;334;48.808;9.222;2022-07-29T01:37:43;23.50;2.00
702;DHT22;334;48.808;9.222;2022-07-29T01:40:14;23.50;2.00
702;DHT22;334;48.808;9.222;2022-07-29T01:41:19;23.50;2.00
702;DHT22;334;48.808;9.222;2022-07-29T01:42:30;23.50;2.00
702;DHT22;334;48.808;9.222;2022-07-29T01:43:44;23.50;2.10
702;DHT22;334;48.808;9.222;2022-07-29T01:45:32;23.50;2.20
702;DHT22;334;48.808;9.222;2022-07-29T01:46:17;23.50;2.00
702;DHT22;334;48.808;9.222;2022-07-29T01:47:25;23.50;2.00
702;DHT22;334;48.808;9.222;2022-07-29T01:48:35;23.50;2.00
702;DHT22;334;48.808;9.222;2022-07-29T01:49:42;23.50;2.00
702;DHT22;334;48.808;9.222;2022-07-29T01:50:56;23.50;2.00
702;DHT22;334;48.808;9.222;2022-07-29T01:52:05;23.50;2.00
702;DHT22;334;48.808;9.222;2022-07-29T01:53:09;23.50;2.00
702;DHT22;334;48.808;9.222;2022-07-29T01:55:02;23.50;2.00
702;DHT22;334;48.808;9.222;2022-07-29T01:55:44;23.50;2.00
702;DHT22;334;48.808;9.222;2022-07-29T01:56:49;23.50;2.00
702;DHT22;334;48.808;9.222;2022-07-29T01:57:56;23.50;2.00
702;DHT22;334;48.808;9.222;2022-07-29T01:58:59;23.50;2.00
702;DHT22;334;48.808;9.222;2022-07-29T02:00:04;23.50;2.00
702;DHT22;334;48.808;9.222;2022-07-29T02:01:08;23.60;2.10
702;DHT22;334;48.808;9.222;2022-07-29T02:02:14;23.60;2.10
702;DHT22;334;48.808;9.222;2022-07-29T02:03:17;23.60;2.10
702;DHT22;334;48.808;9.222;2022-07-29T02:04:21;23.60;1.90
702;DHT22;334;48.808;9.222;2022-07-29T02:05:31;23.60;1.50
702;DHT22;334;48.808;9.222;2022-07-29T02:06:37;23.70;1.50
702;DHT22;334;48.808;9.222;2022-07-29T02:07:42;23.70;1.30
702;DHT22;334;48.808;9.222;2022-07-29T02:08:45;23.70;1.10
702;DHT22;334;48.808;9.222;2022-07-29T02:11:06;23.60;1.00
702;DHT22;334;48.808;9.222;2022-07-29T02:12:10;23.60;1.00
702;DHT22;334;48.808;9.222;2022-07-29T02:13:13;23.60;1.00
702;DHT22;334;48.808;9.222;2022-07-29T02:14:19;23.60;1.00
702;DHT22;334;48.808;9.222;2022-07-29T02:15:24;23.60;1.00
702;DHT22;334;48.808;9.222;2022-07-29T02:16:29;23.60;1.00
702;DHT22;334;48.808;9.222;2022-07-29T02:17:45;23.60;1.00
702;DHT22;334;48.808;9.222;2022-07-29T02:18:49;23.60;1.00
702;DHT22;334;48.808;9.222;2022-07-29T02:19:56;23.60;1.00
702;DHT22;334;48.808;9.222;2022-07-29T02:20:59;23.60;1.00
702;DHT22;334;48.808;9.222;2022-07-29T02:22:02;23.60;1.00
702;DHT22;334;48.808;9.222;2022-07-29T02:23:04;23.60;1.00
702;DHT22;334;48.808;9.222;2022-07-29T02:24:11;23.60;1.00
702;DHT22;334;48.808;9.222;2022-07-29T02:25:14;23.60;1.00
702;DHT22;334;48.808;9.222;2022-07-29T02:26:19;23.60;1.00
702;DHT22;334;48.808;9.222;2022-07-29T02:27:23;23.60;1.00
702;DHT22;334;48.808;9.222;2022-07-29T02:28:28;23.60;1.00
702;DHT22;334;48.808;9.222;2022-07-29T02:29:32;23.50;1.10
702;DHT22;334;48.808;9.222;2022-07-29T02:30:36;23.50;1.00
702;DHT22;334;48.808;9.222;2022-07-29T02:31:41;23.50;1.20
702;DHT22;334;48.808;9.222;2022-07-29T02:32:46;23.50;1.10
702;DHT22;334;48.808;9.222;2022-07-29T02:33:50;23.50;1.00
702;DHT22;334;48.808;9.222;2022-07-29T02:34:53;23.50;1.00
702;DHT22;334;48.808;9.222;2022-07-29T02:35:56;23.50;1.00
702;DHT22;334;48.808;9.222;2022-07-29T02:36:59;23.60;1.00
702;DHT22;334;48.808;9.222;2022-07-29T02:38:02;23.60;1.00
702;DHT22;334;48.808;9.222;2022-07-29T02:39:24;23.60;1.00
702;DHT22;334;48.808;9.222;2022-07-29T02:40:27;23.60;1.00
702;DHT22;334;48.808;9.222;2022-07-29T02:41:33;23.50;1.00
702;DHT22;334;48.808;9.222;2022-07-29T02:42:37;23.50;1.10
702;DHT22;334;48.808;9.222;2022-07-29T02:43:43;23.50;1.00
702;DHT22;334;48.808;9.222;2022-07-29T02:44:45;23.50;1.00
702;DHT22;334;48.808;9.222;2022-07-29T02:45:47;23.50;1.00
702;DHT22;334;48.808;9.222;2022-07-29T02:47:00;23.50;1.00
702;DHT22;334;48.808;9.222;2022-07-29T02:48:08;23.50;1.10
702;DHT22;334;48.808;9.222;2022-07-29T02:50:35;23.50;1.30
702;DHT22;334;48.808;9.222;2022-07-29T02:53:25;23.60;1.70
702;DHT22;334;48.808;9.222;2022-07-29T02:54:46;23.50;1.20
702;DHT22;334;48.808;9.222;2022-07-29T02:55:59;23.40;1.40
702;DHT22;334;48.808;9.222;2022-07-29T02:57:11;23.40;1.40
702;DHT22;334;48.808;9.222;2022-07-29T02:58:32;23.40;1.10
702;DHT22;334;48.808;9.222;2022-07-29T02:59:36;23.40;1.30
702;DHT22;334;48.808;9.222;2022-07-29T03:00:40;23.40;1.00
702;DHT22;334;48.808;9.222;2022-07-29T03:01:42;23.30;1.00
702;DHT22;334;48.808;9.222;2022-07-29T03:02:51;23.30;1.00
702;DHT22;334;48.808;9.222;2022-07-29T03:03:54;23.40;1.00
702;DHT22;334;48.808;9.222;2022-07-29T03:04:57;23.30;1.00
702;DHT22;334;48.808;9.222;2022-07-29T03:06:03;23.30;1.00
702;DHT22;334;48.808;9.222;2022-07-29T03:07:06;23.30;1.00
702;DHT22;334;48.808;9.222;2022-07-29T03:08:10;23.30;1.00
702;DHT22;334;48.808;9.222;2022-07-29T03:09:13;23.30;1.00
702;DHT22;334;48.808;9.222;2022-07-29T03:10:15;23.30;1.00
702;DHT22;334;48.808;9.222;2022-07-29T03:11:18;23.30;1.30
702;DHT22;334;48.808;9.222;2022-07-29T03:12:41;23.30;1.00
702;DHT22;334;48.808;9.222;2022-07-29T03:13:43;23.30;1.00
702;DHT22;334;48.808;9.222;2022-07-29T03:14:46;23.30;1.00
702;DHT22;334;48.808;9.222;2022-07-29T03:15:50;23.30;1.00
702;DHT22;334;48.808;9.222;2022-07-29T03:16:54;23.20;1.00
702;DHT22;334;48.808;9.222;2022-07-29T03:17:57;23.20;1.10
702;DHT22;334;48.808;9.222;2022-07-29T03:19:00;23.20;1.20
702;DHT22;334;48.808;9.222;2022-07-29T03:20:02;23.20;1.30
702;DHT22;334;48.808;9.222;2022-07-29T03:21:05;23.20;1.80
702;DHT22;334;48.808;9.222;2022-07-29T03:22:07;23.10;1.70
702;DHT22;334;48.808;9.222;2022-07-29T03:23:09;23.10;1.70
702;DHT22;334;48.808;9.222;2022-07-29T03:24:24;23.10;1.70
702;DHT22;334;48.808;9.222;2022-07-29T03:25:26;23.10;1.70
702;DHT22;334;48.808;9.222;2022-07-29T03:26:28;23.20;1.80
702;DHT22;334;48.808;9.222;2022-07-29T03:27:30;23.20;1.80
702;DHT22;334;48.808;9.222;2022-07-29T03:28:32;23.10;1.80
702;DHT22;334;48.808;9.222;2022-07-29T03:29:34;23.20;1.80
702;DHT22;334;48.808;9.222;2022-07-29T03:30:36;23.20;1.80
702;DHT22;334;48.808;9.222;2022-07-29T03:31:39;23.20;1.80
702;DHT22;334;48.808;9.222;2022-07-29T03:32:44;23.20;1.80
702;DHT22;334;48.808;9.222;2022-07-29T03:33:46;23.10;1.70
702;DHT22;334;48.808;9.222;2022-07-29T03:34:48;23.10;1.80
702;DHT22;334;48.808;9.222;2022-07-29T03:35:50;23.10;1.80
702;DHT22;334;48.808;9.222;2022-07-29T03:36:51;23.10;1.70
702;DHT22;334;48.808;9.222;2022-07-29T03:37:53;23.00;1.70
702;DHT22;334;48.808;9.222;2022-07-29T03:38:55;23.10;1.70
702;DHT22;334;48.808;9.222;2022-07-29T03:39:58;23.10;1.80
702;DHT22;334;48.808;9.222;2022-07-29T03:41:09;23.10;1.70
702;DHT22;334;48.808;9.222;2022-07-29T03:42:13;23.10;2.80
702;DHT22;334;48.808;9.222;2022-07-29T03:43:17;23.10;1.80
702;DHT22;334;48.808;9.222;2022-07-29T03:44:20;23.10;1.80
702;DHT22;334;48.808;9.222;2022-07-29T03:45:23;23.10;2.10
702;DHT22;334;48.808;9.222;2022-07-29T03:46:28;23.10;2.20
702;DHT22;334;48.808;9.222;2022-07-29T03:47:33;23.00;2.50
702;DHT22;334;48.808;9.222;2022-07-29T03:48:56;23.00;2.50
702;DHT22;334;48.808;9.222;2022-07-29T03:50:05;22.90;3.00
702;DHT22;334;48.808;9.222;2022-07-29T03:51:11;22.90;3.00
702;DHT22;334;48.808;9.222;2022-07-29T03:52:13;22.90;2.90
702;DHT22;334;48.808;9.222;2022-07-29T03:53:15;22.90;2.80
702;DHT22;334;48.808;9.222;2022-07-29T03:54:17;22.90;2.70
702;DHT22;334;48.808;9.222;2022-07-29T03:55:22;23.00;2.80
702;DHT22;334;48.808;9.222;2022-07-29T03:56:24;23.00;2.90
702;DHT22;334;48.808;9.222;2022-07-29T03:57:27;22.90;2.80
702;DHT22;334;48.808;9.222;2022-07-29T03:58:30;22.90;2.90
702;DHT22;334;48.808;9.222;2022-07-29T03:59:33;22.90;3.00
702;DHT22;334;48.808;9.222;2022-07-29T04:00:36;22.90;2.90
702;DHT22;334;48.808;9.222;2022-07-29T04:01:39;23.00;3.00
702;DHT22;334;48.808;9.222;2022-07-29T04:02:43;22.90;2.90
702;DHT22;334;48.808;9.222;2022-07-29T04:03:50;22.90;3.00
702;DHT22;334;48.808;9.222;2022-07-29T04:04:52;22.90;3.00
702;DHT22;334;48.808;9.222;2022-07-29T04:06:06;22.90;3.10
702;DHT22;334;48.808;9.222;2022-07-29T04:07:15;22.90;3.60
702;DHT22;334;48.808;9.222;2022-07-29T04:08:17;22.90;3.50
702;DHT22;334;48.808;9.222;2022-07-29T04:09:18;22.90;3.40
702;DHT22;334;48.808;9.222;2022-07-29T04:10:20;22.80;3.50
702;DHT22;334;48.808;9.222;2022-07-29T04:11:32;22.80;3.70
702;DHT22;334;48.808;9.222;2022-07-29T04:12:54;22.80;3.90
702;DHT22;334;48.808;9.222;2022-07-29T04:13:56;22.80;3.90
702;DHT22;334;48.808;9.222;2022-07-29T04:14:58;22.70;3.80
702;DHT22;334;48.808;9.222;2022-07-29T04:16:01;22.80;3.90
702;DHT22;334;48.808;9.222;2022-07-29T04:17:04;22.80;4.10
702;DHT22;334;48.808;9.222;2022-07-29T04:18:06;22.80;4.20
702;DHT22;334;48.808;9.222;2022-07-29T04:19:08;22.80;4.20
702;DHT22;334;48.808;9.222;2022-07-29T04:20:10;22.80;4.20
702;DHT22;334;48.808;9.222;2022-07-29T04:21:14;22.70;4.30
702;DHT22;334;48.808;9.222;2022-07-29T04:22:16;22.80;4.40
702;DHT22;334;48.808;9.222;2022-07-29T04:23:18;22.80;4.40
702;DHT22;334;48.808;9.222;2022-07-29T04:24:20;22.80;4.30
702;DHT22;334;48.808;9.222;2022-07-29T04:25:22;22.80;4.30
702;DHT22;334;48.808;9.222;2022-07-29T04:26:24;22.80;4.10
702;DHT22;334;48.808;9.222;2022-07-29T04:27:26;22.80;4.10
702;DHT22;334;48.808;9.222;2022-07-29T04:28:27;22.80;3.90
702;DHT22;334;48.808;9.222;2022-07-29T04:29:29;22.90;3.90
702;DHT22;334;48.808;9.222;2022-07-29T04:30:32;22.90;4.00
702;DHT22;334;48.808;9.222;2022-07-29T04:31:35;22.90;4.00
702;DHT22;334;48.808;9.222;2022-07-29T04:32:37;22.90;4.00
702;DHT22;334;48.808;9.222;2022-07-29T04:33:39;23.00;3.90
702;DHT22;334;48.808;9.222;2022-07-29T04:34:41;22.90;3.80
702;DHT22;334;48.808;9.222;2022-07-29T04:35:43;23.00;3.60
702;DHT22;334;48.808;9.222;2022-07-29T04:36:51;23.00;3.60
702;DHT22;334;48.808;9.222;2022-07-29T04:37:52;23.00;3.60
702;DHT22;334;48.808;9.222;2022-07-29T04:38:54;23.00;3.50
702;DHT22;334;48.808;9.222;2022-07-29T04:39:56;23.00;3.40
702;DHT22;334;48.808;9.222;2022-07-29T04:40:58;23.00;3.40
702;DHT22;334;48.808;9.222;2022-07-29T04:42:03;23.00;3.40
702;DHT22;334;48.808;9.222;2022-07-29T04:43:08;23.00;3.60
702;DHT22;334;48.808;9.222;2022-07-29T04:44:13;23.10;3.40
702;DHT22;334;48.808;9.222;2022-07-29T04:45:15;23.10;3.30
702;DHT22;334;48.808;9.222;2022-07-29T04:46:23;23.10;3.20
702;DHT22;334;48.808;9.222;2022-07-29T04:47:25;23.10;3.10
702;DHT22;334;48.808;9.222;2022-07-29T04:48:27;23.10;3.20
702;DHT22;334;48.808;9.222;2022-07-29T04:49:29;23.10;3.30
702;DHT22;334;48.808;9.222;2022-07-29T04:50:31;23.10;3.30
702;DHT22;334;48.808;9.222;2022-07-29T04:51:34;23.10;3.30
702;DHT22;334;48.808;9.222;2022-07-29T04:52:36;23.10;3.40
702;DHT22;334;48.808;9.222;2022-07-29T04:53:38;23.10;3.30
702;DHT22;334;48.808;9.222;2022-07-29T04:54:40;23.10;3.40
702;DHT22;334;48.808;9.222;2022-07-29T04:55:42;23.00;3.30
702;DHT22;334;48.808;9.222;2022-07-29T04:56:43;23.00;3.40
702;DHT22;334;48.808;9.222;2022-07-29T04:57:45;23.00;3.50
702;DHT22;334;48.808;9.222;2022-07-29T04:58:47;23.00;3.50
702;DHT22;334;48.808;9.222;2022-07-29T04:59:49;23.00;3.70
702;DHT22;334;48.808;9.222;2022-07-29T05:00:51;23.00;3.80
702;DHT22;334;48.808;9.222;2022-07-29T05:01:53;23.00;3.90
702;DHT22;334;48.808;9.222;2022-07-29T05:02:54;23.00;4.00
702;DHT22;334;48.808;9.222;2022-07-29T05:03:56;22.90;4.10
702;DHT22;334;48.808;9.222;2022-07-29T05:05:01;22.90;4.10
702;DHT22;334;48.808;9.222;2022-07-29T05:06:04;22.90;4.70
702;DHT22;334;48.808;9.222;2022-07-29T05:07:06;22.90;4.20
702;DHT22;334;48.808;9.222;2022-07-29T05:08:08;22.90;4.00
702;DHT22;334;48.808;9.222;2022-07-29T05:09:11;22.90;4.00
702;DHT22;334;48.808;9.222;2022-07-29T05:10:13;22.80;4.00
702;DHT22;334;48.808;9.222;2022-07-29T05:11:14;23.00;4.10
702;DHT22;334;48.808;9.222;2022-07-29T05:12:26;23.00;4.30
702;DHT22;334;48.808;9.222;2022-07-29T05:13:28;22.90;4.10
702;DHT22;334;48.808;9.222;2022-07-29T05:14:46;23.00;4.00
702;DHT22;334;48.808;9.222;2022-07-29T05:15:48;23.00;4.00
702;DHT22;334;48.808;9.222;2022-07-29T05:16:50;23.00;3.90
702;DHT22;334;48.808;9.222;2022-07-29T05:17:52;23.00;3.80
702;DHT22;334;48.808;9.222;2022-07-29T05:18:54;23.00;3.80
702;DHT22;334;48.808;9.222;2022-07-29T05:19:56;23.00;3.60
702;DHT22;334;48.808;9.222;2022-07-29T05:20:57;23.00;3.60
702;DHT22;334;48.808;9.222;2022-07-29T05:21:59;23.10;3.70
702;DHT22;334;48.808;9.222;2022-07-29T05:23:02;23.10;3.70
702;DHT22;334;48.808;9.222;2022-07-29T05:24:05;23.10;3.70
702;DHT22;334;48.808;9.222;2022-07-29T05:25:07;23.10;3.60
702;DHT22;334;48.808;9.222;2022-07-29T05:26:10;23.10;3.60
702;DHT22;334;48.808;9.222;2022-07-29T05:27:13;23.10;3.40
702;DHT22;334;48.808;9.222;2022-07-29T05:28:15;23.20;3.30
702;DHT22;334;48.808;9.222;2022-07-29T05:29:17;23.20;3.40
702;DHT22;334;48.808;9.222;2022-07-29T05:30:39;23.20;3.40
702;DHT22;334;48.808;9.222;2022-07-29T05:31:41;23.20;3.10
702;DHT22;334;48.808;9.222;2022-07-29T05:32:43;23.30;3.30
702;DHT22;334;48.808;9.222;2022-07-29T05:33:45;23.30;3.00
702;DHT22;334;48.808;9.222;2022-07-29T05:34:47;23.30;2.90
702;DHT22;334;48.808;9.222;2022-07-29T05:35:52;23.40;2.80
702;DHT22;334;48.808;9.222;2022-07-29T05:37:00;23.40;2.70
702;DHT22;334;48.808;9.222;2022-07-29T05:38:03;23.50;3.00
702;DHT22;334;48.808;9.222;2022-07-29T05:39:04;23.50;2.30
702;DHT22;334;48.808;9.222;2022-07-29T05:40:07;23.70;2.10
702;DHT22;334;48.808;9.222;2022-07-29T05:41:09;23.60;2.10
702;DHT22;334;48.808;9.222;2022-07-29T05:42:12;23.60;2.10
702;DHT22;334;48.808;9.222;2022-07-29T05:43:14;23.60;2.10
702;DHT22;334;48.808;9.222;2022-07-29T05:44:19;23.70;2.20
702;DHT22;334;48.808;9.222;2022-07-29T05:45:25;23.70;2.10
702;DHT22;334;48.808;9.222;2022-07-29T05:46:28;23.70;2.10
702;DHT22;334;48.808;9.222;2022-07-29T05:47:33;23.70;2.10
702;DHT22;334;48.808;9.222;2022-07-29T05:48:35;23.80;2.10
702;DHT22;334;48.808;9.222;2022-07-29T05:49:37;23.80;1.70
702;DHT22;334;48.808;9.222;2022-07-29T05:50:40;23.90;1.60
702;DHT22;334;48.808;9.222;2022-07-29T05:51:44;24.10;1.90
702;DHT22;334;48.808;9.222;2022-07-29T05:52:46;24.00;1.00
702;DHT22;334;48.808;9.222;2022-07-29T05:53:50;24.10;1.40
702;DHT22;334;48.808;9.222;2022-07-29T05:54:52;24.20;1.00
702;DHT22;334;48.808;9.222;2022-07-29T05:55:54;24.10;1.00
702;DHT22;334;48.808;9.222;2022-07-29T05:56:56;24.20;1.00
702;DHT22;334;48.808;9.222;2022-07-29T05:57:58;24.20;1.00
702;DHT22;334;48.808;9.222;2022-07-29T05:59:00;24.20;1.00
702;DHT22;334;48.808;9.222;2022-07-29T06:00:02;24.30;1.00
702;DHT22;334;48.808;9.222;2022-07-29T06:01:05;24.30;1.00
702;DHT22;334;48.808;9.222;2022-07-29T06:02:07;24.40;1.00
702;DHT22;334;48.808;9.222;2022-07-29T06:03:09;24.40;1.00
702;DHT22;334;48.808;9.222;2022-07-29T06:04:11;24.50;1.00
702;DHT22;334;48.808;9.222;2022-07-29T06:05:13;24.60;1.00
702;DHT22;334;48.808;9.222;2022-07-29T06:06:17;24.70;1.00
702;DHT22;334;48.808;9.222;2022-07-29T06:07:19;24.70;1.00
702;DHT22;334;48.808;9.222;2022-07-29T06:08:21;24.80;1.00
702;DHT22;334;48.808;9.222;2022-07-29T06:09:23;25.00;1.00
702;DHT22;334;48.808;9.222;2022-07-29T06:10:25;25.00;1.00
702;DHT22;334;48.808;9.222;2022-07-29T06:11:28;25.00;1.00
702;DHT22;334;48.808;9.222;2022-07-29T06:12:30;25.00;1.00
702;DHT22;334;48.808;9.222;2022-07-29T06:13:32;25.10;1.00
702;DHT22;334;48.808;9.222;2022-07-29T06:14:34;25.10;1.00
702;DHT22;334;48.808;9.222;2022-07-29T06:15:36;25.20;1.00
702;DHT22;334;48.808;9.222;2022-07-29T06:16:38;25.20;1.00
702;DHT22;334;48.808;9.222;2022-07-29T06:17:41;25.20;1.00
702;DHT22;334;48.808;9.222;2022-07-29T06:19:01;25.30;1.00
702;DHT22;334;48.808;9.222;2022-07-29T06:20:04;25.40;1.00
702;DHT22;334;48.808;9.222;2022-07-29T06:21:09;25.40;1.00
702;DHT22;334;48.808;9.222;2022-07-29T06:22:11;25.50;1.00
702;DHT22;334;48.808;9.222;2022-07-29T06:23:13;25.60;1.00
702;DHT22;334;48.808;9.222;2022-07-29T06:24:16;25.70;1.00
702;DHT22;334;48.808;9.222;2022-07-29T06:25:18;25.80;1.00
702;DHT22;334;48.808;9.222;2022-07-29T06:26:20;25.80;1.00
702;DHT22;334;48.808;9.222;2022-07-29T06:27:31;25.90;1.00
702;DHT22;334;48.808;9.222;2022-07-29T06:28:34;26.00;1.00
702;DHT22;334;48.808;9.222;2022-07-29T06:29:36;26.00;1.00
702;DHT22;334;48.808;9.222;2022-07-29T06:30:39;26.00;1.00
702;DHT22;334;48.808;9.222;2022-07-29T06:31:41;26.00;1.00
702;DHT22;334;48.808;9.222;2022-07-29T06:32:43;26.00;1.00
702;DHT22;334;48.808;9.222;2022-07-29T06:33:45;26.10;1.00
702;DHT22;334;48.808;9.222;2022-07-29T06:34:47;26.20;1.00
702;DHT22;334;48.808;9.222;2022-07-29T06:35:49;26.20;1.00
702;DHT22;334;48.808;9.222;2022-07-29T06:36:54;26.40;1.00
702;DHT22;334;48.808;9.222;2022-07-29T06:37:56;26.40;1.00
702;DHT22;334;48.808;9.222;2022-07-29T06:39:00;26.40;1.00
702;DHT22;334;48.808;9.222;2022-07-29T06:40:04;26.40;1.00
702;DHT22;334;48.808;9.222;2022-07-29T06:41:26;26.40;1.00
702;DHT22;334;48.808;9.222;2022-07-29T06:42:28;26.40;1.00
702;DHT22;334;48.808;9.222;2022-07-29T06:43:35;26.50;1.00
702;DHT22;334;48.808;9.222;2022-07-29T06:44:51;26.50;1.00
702;DHT22;334;48.808;9.222;2022-07-29T06:45:53;26.50;1.00
702;DHT22;334;48.808;9.222;2022-07-29T06:46:56;26.50;1.00
702;DHT22;334;48.808;9.222;2022-07-29T06:47:58;26.50;1.00
702;DHT22;334;48.808;9.222;2022-07-29T06:49:00;26.60;1.00
702;DHT22;334;48.808;9.222;2022-07-29T06:50:04;26.40;1.00
702;DHT22;334;48.808;9.222;2022-07-29T06:51:08;26.30;1.00
702;DHT22;334;48.808;9.222;2022-07-29T06:52:10;26.30;1.00
702;DHT22;334;48.808;9.222;2022-07-29T06:53:12;26.20;1.00
702;DHT22;334;48.808;9.222;2022-07-29T06:54:17;26.20;1.00
702;DHT22;334;48.808;9.222;2022-07-29T06:55:19;26.20;1.00
702;DHT22;334;48.808;9.222;2022-07-29T06:56:27;26.20;1.00
702;DHT22;334;48.808;9.222;2022-07-29T06:57:29;26.20;1.00
702;DHT22;334;48.808;9.222;2022-07-29T06:58:31;26.20;1.00
702;DHT22;334;48.808;9.222;2022-07-29T06:59:34;26.20;1.00
702;DHT22;334;48.808;9.222;2022-07-29T07:00:40;26.20;1.00
702;DHT22;334;48.808;9.222;2022-07-29T07:01:42;26.10;1.00
702;DHT22;334;48.808;9.222;2022-07-29T07:02:46;26.10;1.00
702;DHT22;334;48.808;9.222;2022-07-29T07:03:48;26.10;1.00
702;DHT22;334;48.808;9.222;2022-07-29T07:04:51;26.10;1.00
702;DHT22;334;48.808;9.222;2022-07-29T07:05:55;26.10;1.00
702;DHT22;334;48.808;9.222;2022-07-29T07:06:56;26.10;1.00
702;DHT22;334;48.808;9.222;2022-07-29T07:07:59;26.10;1.00
702;DHT22;334;48.808;9.222;2022-07-29T07:09:01;26.20;1.00
702;DHT22;334;48.808;9.222;2022-07-29T07:10:04;26.20;1.00
702;DHT22;334;48.808;9.222;2022-07-29T07:11:07;26.20;1.00
702;DHT22;334;48.808;9.222;2022-07-29T07:12:10;26.20;1.00
702;DHT22;334;48.808;9.222;2022-07-29T07:13:12;26.30;1.00
702;DHT22;334;48.808;9.222;2022-07-29T07:14:14;26.30;1.00
702;DHT22;334;48.808;9.222;2022-07-29T07:15:16;26.30;1.00
702;DHT22;334;48.808;9.222;2022-07-29T07:16:18;26.40;1.00
702;DHT22;334;48.808;9.222;2022-07-29T07:17:20;26.40;1.00
702;DHT22;334;48.808;9.222;2022-07-29T07:18:23;26.50;1.00
702;DHT22;334;48.808;9.222;2022-07-29T07:19:25;26.40;1.00
702;DHT22;334;48.808;9.222;2022-07-29T07:20:26;26.40;1.00
702;DHT22;334;48.808;9.222;2022-07-29T07:21:32;26.40;1.00
702;DHT22;334;48.808;9.222;2022-07-29T07:22:34;26.40;1.00
702;DHT22;334;48.808;9.222;2022-07-29T07:23:39;26.40;1.00
702;DHT22;334;48.808;9.222;2022-07-29T07:24:41;26.40;1.00
702;DHT22;334;48.808;9.222;2022-07-29T07:25:43;26.40;1.00
702;DHT22;334;48.808;9.222;2022-07-29T07:26:46;26.30;1.00
702;DHT22;334;48.808;9.222;2022-07-29T07:27:48;26.30;1.00
702;DHT22;334;48.808;9.222;2022-07-29T07:28:51;26.40;1.00
702;DHT22;334;48.808;9.222;2022-07-29T07:29:53;26.30;1.00
702;DHT22;334;48.808;9.222;2022-07-29T07:30:55;26.30;1.00
702;DHT22;334;48.808;9.222;2022-07-29T07:31:57;26.30;1.00
702;DHT22;334;48.808;9.222;2022-07-29T07:33:02;26.30;1.00
702;DHT22;334;48.808;9.222;2022-07-29T07:34:04;26.40;1.00
702;DHT22;334;48.808;9.222;2022-07-29T07:35:09;26.50;1.00
702;DHT22;334;48.808;9.222;2022-07-29T07:36:11;26.40;1.00